sensor_id;sensor_type;location;lat;lon;timestamp;P1;durP1;ratioP1;P2;durP2;ratioP2
58222;SDS011;44020;50.890;15.796;2023-05-07T00:00:26;12.60;;;8.40;;
58222;SDS011;44020;50.890;15.796;2023-05-07T00:03:15;13.30;;;8.40;;
58222;SDS011;44020;50.890;15.796;2023-05-07T00:05:42;12.60;;;8.40;;
58222;SDS011;44020;50.890;15.796;2023-05-07T00:08:10;14.80;;;8.90;;
58222;SDS011;44020;50.890;15.796;2023-05-07T00:10:38;12.40;;;8.30;;
58222;SDS011;44020;50.890;15.796;2023-05-07T00:13:05;12.70;;;8.20;;
58222;SDS011;44020;50.890;15.796;2023-05-07T00:15:33;13.30;;;8.20;;
58222;SDS011;44020;50.890;15.796;2023-05-07T00:18:01;13.50;;;8.20;;
58222;SDS011;44020;50.890;15.796;2023-05-07T00:20:29;12.10;;;7.90;;
58222;SDS011;44020;50.890;15.796;2023-05-07T00:22:57;14.90;;;8.10;;
58222;SDS011;44020;50.890;15.796;2023-05-07T00:25:24;10.70;;;7.40;;
58222;SDS011;44020;50.890;15.796;2023-05-07T00:27:52;12.00;;;7.50;;
58222;SDS011;44020;50.890;15.796;2023-05-07T00:30:19;11.30;;;7.30;;
58222;SDS011;44020;50.890;15.796;2023-05-07T00:32:48;10.50;;;7.00;;
58222;SDS011;44020;50.890;15.796;2023-05-07T00:35:17;11.90;;;7.40;;
58222;SDS011;44020;50.890;15.796;2023-05-07T00:37:46;11.30;;;7.30;;
58222;SDS011;44020;50.890;15.796;2023-05-07T00:40:13;10.60;;;7.10;;
58222;SDS011;44020;50.890;15.796;2023-05-07T00:42:41;12.10;;;7.90;;
58222;SDS011;44020;50.890;15.796;2023-05-07T00:45:09;12.50;;;8.00;;
58222;SDS011;44020;50.890;15.796;2023-05-07T00:47:37;14.40;;;7.50;;
58222;SDS011;44020;50.890;15.796;2023-05-07T00:50:06;13.10;;;8.20;;
58222;SDS011;44020;50.890;15.796;2023-05-07T00:52:35;12.30;;;7.50;;
58222;SDS011;44020;50.890;15.796;2023-05-07T00:55:05;13.60;;;7.90;;
58222;SDS011;44020;50.890;15.796;2023-05-07T00:57:36;11.90;;;7.30;;
58222;SDS011;44020;50.890;15.796;2023-05-07T01:00:07;10.70;;;6.80;;
58222;SDS011;44020;50.890;15.796;2023-05-07T01:02:36;11.90;;;7.30;;
58222;SDS011;44020;50.890;15.796;2023-05-07T01:05:04;10.70;;;6.90;;
58222;SDS011;44020;50.890;15.796;2023-05-07T01:07:34;10.90;;;6.90;;
58222;SDS011;44020;50.890;15.796;2023-05-07T01:10:04;11.30;;;7.30;;
58222;SDS011;44020;50.890;15.796;2023-05-07T01:12:34;11.20;;;7.30;;
58222;SDS011;44020;50.890;15.796;2023-05-07T01:15:03;12.20;;;7.30;;
58222;SDS011;44020;50.890;15.796;2023-05-07T01:17:35;9.30;;;6.30;;
58222;SDS011;44020;50.890;15.796;2023-05-07T01:20:05;13.10;;;7.00;;
58222;SDS011;44020;50.890;15.796;2023-05-07T01:22:37;11.00;;;6.50;;
58222;SDS011;44020;50.890;15.796;2023-05-07T01:25:06;11.60;;;7.00;;
58222;SDS011;44020;50.890;15.796;2023-05-07T01:27:35;12.50;;;7.20;;
58222;SDS011;44020;50.890;15.796;2023-05-07T01:30:04;11.50;;;7.20;;
58222;SDS011;44020;50.890;15.796;2023-05-07T01:32:33;12.10;;;7.30;;
58222;SDS011;44020;50.890;15.796;2023-05-07T01:35:12;10.50;;;6.80;;
58222;SDS011;44020;50.890;15.796;2023-05-07T01:37:42;10.80;;;7.00;;
58222;SDS011;44020;50.890;15.796;2023-05-07T01:40:10;10.30;;;6.50;;
58222;SDS011;44020;50.890;15.796;2023-05-07T01:42:38;12.20;;;6.70;;
58222;SDS011;44020;50.890;15.796;2023-05-07T01:45:08;10.20;;;6.30;;
58222;SDS011;44020;50.890;15.796;2023-05-07T01:47:36;11.10;;;7.10;;
58222;SDS011;44020;50.890;15.796;2023-05-07T01:50:08;11.00;;;6.40;;
58222;SDS011;44020;50.890;15.796;2023-05-07T01:52:37;9.90;;;5.90;;
58222;SDS011;44020;50.890;15.796;2023-05-07T01:55:06;9.40;;;5.80;;
58222;SDS011;44020;50.890;15.796;2023-05-07T01:57:33;10.50;;;6.70;;
58222;SDS011;44020;50.890;15.796;2023-05-07T02:00:01;10.50;;;6.30;;
58222;SDS011;44020;50.890;15.796;2023-05-07T02:02:31;10.00;;;6.50;;
58222;SDS011;44020;50.890;15.796;2023-05-07T02:04:59;9.70;;;6.00;;
58222;SDS011;44020;50.890;15.796;2023-05-07T02:07:28;10.00;;;6.50;;
58222;SDS011;44020;50.890;15.796;2023-05-07T02:09:55;9.90;;;5.90;;
58222;SDS011;44020;50.890;15.796;2023-05-07T02:12:23;9.70;;;6.10;;
58222;SDS011;44020;50.890;15.796;2023-05-07T02:14:51;10.70;;;6.50;;
58222;SDS011;44020;50.890;15.796;2023-05-07T02:17:19;11.90;;;6.30;;
58222;SDS011;44020;50.890;15.796;2023-05-07T02:19:46;10.00;;;6.30;;
58222;SDS011;44020;50.890;15.796;2023-05-07T02:22:14;9.10;;;5.60;;
58222;SDS011;44020;50.890;15.796;2023-05-07T02:24:42;9.10;;;6.10;;
58222;SDS011;44020;50.890;15.796;2023-05-07T02:27:09;9.00;;;5.90;;
58222;SDS011;44020;50.890;15.796;2023-05-07T02:29:37;8.60;;;5.70;;
58222;SDS011;44020;50.890;15.796;2023-05-07T02:32:04;10.40;;;5.40;;
58222;SDS011;44020;50.890;15.796;2023-05-07T02:34:32;8.20;;;5.40;;
58222;SDS011;44020;50.890;15.796;2023-05-07T02:37:00;8.70;;;5.40;;
58222;SDS011;44020;50.890;15.796;2023-05-07T02:39:27;9.10;;;5.60;;
58222;SDS011;44020;50.890;15.796;2023-05-07T02:41:55;7.30;;;4.80;;
58222;SDS011;44020;50.890;15.796;2023-05-07T02:44:22;7.20;;;4.50;;
58222;SDS011;44020;50.890;15.796;2023-05-07T02:46:50;7.80;;;4.70;;
58222;SDS011;44020;50.890;15.796;2023-05-07T02:49:18;7.20;;;4.30;;
58222;SDS011;44020;50.890;15.796;2023-05-07T02:51:45;6.30;;;4.50;;
58222;SDS011;44020;50.890;15.796;2023-05-07T02:54:13;7.50;;;4.80;;
58222;SDS011;44020;50.890;15.796;2023-05-07T02:56:41;8.50;;;5.10;;
58222;SDS011;44020;50.890;15.796;2023-05-07T02:59:08;7.40;;;4.80;;
58222;SDS011;44020;50.890;15.796;2023-05-07T03:01:35;8.30;;;5.00;;
58222;SDS011;44020;50.890;15.796;2023-05-07T03:04:03;10.50;;;5.30;;
58222;SDS011;44020;50.890;15.796;2023-05-07T03:06:31;7.90;;;5.00;;
58222;SDS011;44020;50.890;15.796;2023-05-07T03:08:58;7.30;;;4.60;;
58222;SDS011;44020;50.890;15.796;2023-05-07T03:11:26;8.40;;;4.70;;
58222;SDS011;44020;50.890;15.796;2023-05-07T03:13:53;7.60;;;4.20;;
58222;SDS011;44020;50.890;15.796;2023-05-07T03:16:21;6.80;;;4.20;;
58222;SDS011;44020;50.890;15.796;2023-05-07T03:18:49;8.60;;;4.40;;
58222;SDS011;44020;50.890;15.796;2023-05-07T03:21:17;6.00;;;4.50;;
58222;SDS011;44020;50.890;15.796;2023-05-07T03:23:45;6.60;;;4.50;;
58222;SDS011;44020;50.890;15.796;2023-05-07T03:26:13;8.80;;;4.10;;
58222;SDS011;44020;50.890;15.796;2023-05-07T03:28:41;5.70;;;3.80;;
58222;SDS011;44020;50.890;15.796;2023-05-07T03:31:09;6.30;;;4.30;;
58222;SDS011;44020;50.890;15.796;2023-05-07T03:33:38;6.50;;;4.40;;
58222;SDS011;44020;50.890;15.796;2023-05-07T03:36:16;6.70;;;4.10;;
58222;SDS011;44020;50.890;15.796;2023-05-07T03:38:44;6.40;;;3.80;;
58222;SDS011;44020;50.890;15.796;2023-05-07T03:41:12;5.10;;;3.40;;
58222;SDS011;44020;50.890;15.796;2023-05-07T03:43:39;5.20;;;3.20;;
58222;SDS011;44020;50.890;15.796;2023-05-07T03:46:07;5.80;;;3.90;;
58222;SDS011;44020;50.890;15.796;2023-05-07T03:48:34;4.20;;;3.10;;
58222;SDS011;44020;50.890;15.796;2023-05-07T03:51:02;6.80;;;3.50;;
58222;SDS011;44020;50.890;15.796;2023-05-07T03:53:30;4.10;;;2.90;;
58222;SDS011;44020;50.890;15.796;2023-05-07T03:55:57;4.40;;;2.90;;
58222;SDS011;44020;50.890;15.796;2023-05-07T03:58:25;4.90;;;2.90;;
58222;SDS011;44020;50.890;15.796;2023-05-07T04:00:52;3.90;;;2.50;;
58222;SDS011;44020;50.890;15.796;2023-05-07T04:03:20;3.80;;;2.80;;
58222;SDS011;44020;50.890;15.796;2023-05-07T04:05:48;4.30;;;2.80;;
58222;SDS011;44020;50.890;15.796;2023-05-07T04:08:15;4.10;;;2.50;;
58222;SDS011;44020;50.890;15.796;2023-05-07T04:10:43;3.90;;;2.50;;
58222;SDS011;44020;50.890;15.796;2023-05-07T04:13:11;3.40;;;2.40;;
58222;SDS011;44020;50.890;15.796;2023-05-07T04:15:38;3.60;;;2.30;;
58222;SDS011;44020;50.890;15.796;2023-05-07T04:18:06;3.30;;;2.30;;
58222;SDS011;44020;50.890;15.796;2023-05-07T04:20:33;3.40;;;2.10;;
58222;SDS011;44020;50.890;15.796;2023-05-07T04:23:03;3.50;;;2.10;;
58222;SDS011;44020;50.890;15.796;2023-05-07T04:25:31;3.20;;;2.30;;
58222;SDS011;44020;50.890;15.796;2023-05-07T04:27:59;3.10;;;2.40;;
58222;SDS011;44020;50.890;15.796;2023-05-07T04:30:27;3.50;;;2.40;;
58222;SDS011;44020;50.890;15.796;2023-05-07T04:32:54;3.40;;;2.20;;
58222;SDS011;44020;50.890;15.796;2023-05-07T04:35:22;3.70;;;3.00;;
58222;SDS011;44020;50.890;15.796;2023-05-07T04:37:50;3.70;;;2.80;;
58222;SDS011;44020;50.890;15.796;2023-05-07T04:40:18;4.30;;;3.00;;
58222;SDS011;44020;50.890;15.796;2023-05-07T04:42:45;3.80;;;2.70;;
58222;SDS011;44020;50.890;15.796;2023-05-07T04:45:13;4.40;;;3.10;;
58222;SDS011;44020;50.890;15.796;2023-05-07T04:47:40;3.40;;;2.60;;
58222;SDS011;44020;50.890;15.796;2023-05-07T04:50:08;4.70;;;2.80;;
58222;SDS011;44020;50.890;15.796;2023-05-07T04:52:35;4.70;;;3.50;;
58222;SDS011;44020;50.890;15.796;2023-05-07T04:55:03;4.00;;;2.80;;
58222;SDS011;44020;50.890;15.796;2023-05-07T04:57:31;4.60;;;2.90;;
58222;SDS011;44020;50.890;15.796;2023-05-07T04:59:59;4.20;;;2.80;;
58222;SDS011;44020;50.890;15.796;2023-05-07T05:02:26;3.70;;;3.30;;
58222;SDS011;44020;50.890;15.796;2023-05-07T05:04:54;4.30;;;3.20;;
58222;SDS011;44020;50.890;15.796;2023-05-07T05:07:21;5.30;;;3.30;;
58222;SDS011;44020;50.890;15.796;2023-05-07T05:09:49;6.00;;;4.00;;
58222;SDS011;44020;50.890;15.796;2023-05-07T05:12:16;6.20;;;4.50;;
58222;SDS011;44020;50.890;15.796;2023-05-07T05:14:43;8.60;;;5.70;;
58222;SDS011;44020;50.890;15.796;2023-05-07T05:17:10;7.80;;;5.30;;
58222;SDS011;44020;50.890;15.796;2023-05-07T05:19:37;7.50;;;5.10;;
58222;SDS011;44020;50.890;15.796;2023-05-07T05:22:04;6.60;;;4.70;;
58222;SDS011;44020;50.890;15.796;2023-05-07T05:24:32;7.00;;;4.70;;
58222;SDS011;44020;50.890;15.796;2023-05-07T05:26:59;7.50;;;5.30;;
58222;SDS011;44020;50.890;15.796;2023-05-07T05:29:29;5.70;;;4.50;;
58222;SDS011;44020;50.890;15.796;2023-05-07T05:31:58;7.30;;;4.80;;
58222;SDS011;44020;50.890;15.796;2023-05-07T05:34:26;7.10;;;4.90;;
58222;SDS011;44020;50.890;15.796;2023-05-07T05:36:54;7.10;;;5.20;;
58222;SDS011;44020;50.890;15.796;2023-05-07T05:39:22;6.80;;;4.00;;
58222;SDS011;44020;50.890;15.796;2023-05-07T05:41:50;6.30;;;4.80;;
58222;SDS011;44020;50.890;15.796;2023-05-07T05:44:17;7.30;;;4.80;;
58222;SDS011;44020;50.890;15.796;2023-05-07T05:46:45;4.90;;;3.70;;
58222;SDS011;44020;50.890;15.796;2023-05-07T05:49:13;5.40;;;4.00;;
58222;SDS011;44020;50.890;15.796;2023-05-07T05:51:40;6.50;;;4.10;;
58222;SDS011;44020;50.890;15.796;2023-05-07T05:54:08;4.90;;;4.20;;
58222;SDS011;44020;50.890;15.796;2023-05-07T05:56:36;4.30;;;3.70;;
58222;SDS011;44020;50.890;15.796;2023-05-07T05:59:04;4.80;;;3.90;;
58222;SDS011;44020;50.890;15.796;2023-05-07T06:01:32;6.30;;;3.90;;
58222;SDS011;44020;50.890;15.796;2023-05-07T06:03:59;5.90;;;4.30;;
58222;SDS011;44020;50.890;15.796;2023-05-07T06:06:28;4.40;;;3.40;;
58222;SDS011;44020;50.890;15.796;2023-05-07T06:08:56;4.80;;;3.40;;
58222;SDS011;44020;50.890;15.796;2023-05-07T06:11:23;5.30;;;3.60;;
58222;SDS011;44020;50.890;15.796;2023-05-07T06:13:51;5.50;;;3.40;;
58222;SDS011;44020;50.890;15.796;2023-05-07T06:16:19;5.20;;;3.30;;
58222;SDS011;44020;50.890;15.796;2023-05-07T06:18:47;5.60;;;3.60;;
58222;SDS011;44020;50.890;15.796;2023-05-07T06:21:14;5.90;;;3.80;;
58222;SDS011;44020;50.890;15.796;2023-05-07T06:23:42;4.10;;;2.90;;
58222;SDS011;44020;50.890;15.796;2023-05-07T06:26:09;7.00;;;4.10;;
58222;SDS011;44020;50.890;15.796;2023-05-07T06:28:37;5.60;;;3.50;;
58222;SDS011;44020;50.890;15.796;2023-05-07T06:31:11;7.30;;;3.70;;
58222;SDS011;44020;50.890;15.796;2023-05-07T06:33:47;4.10;;;3.10;;
58222;SDS011;44020;50.890;15.796;2023-05-07T06:36:15;4.90;;;3.10;;
58222;SDS011;44020;50.890;15.796;2023-05-07T06:38:42;6.20;;;3.60;;
58222;SDS011;44020;50.890;15.796;2023-05-07T06:41:10;6.00;;;4.20;;
58222;SDS011;44020;50.890;15.796;2023-05-07T06:43:37;5.00;;;3.40;;
58222;SDS011;44020;50.890;15.796;2023-05-07T06:46:05;5.20;;;3.70;;
58222;SDS011;44020;50.890;15.796;2023-05-07T06:48:33;5.80;;;4.10;;
58222;SDS011;44020;50.890;15.796;2023-05-07T06:51:00;4.50;;;3.50;;
58222;SDS011;44020;50.890;15.796;2023-05-07T06:53:28;4.70;;;3.50;;
58222;SDS011;44020;50.890;15.796;2023-05-07T06:55:57;5.70;;;4.10;;
58222;SDS011;44020;50.890;15.796;2023-05-07T06:58:25;5.00;;;3.70;;
58222;SDS011;44020;50.890;15.796;2023-05-07T07:00:53;6.90;;;4.30;;
58222;SDS011;44020;50.890;15.796;2023-05-07T07:03:21;7.20;;;4.90;;
58222;SDS011;44020;50.890;15.796;2023-05-07T07:05:52;7.50;;;4.90;;
58222;SDS011;44020;50.890;15.796;2023-05-07T07:08:21;6.80;;;4.50;;
58222;SDS011;44020;50.890;15.796;2023-05-07T07:10:49;6.70;;;4.90;;
58222;SDS011;44020;50.890;15.796;2023-05-07T07:13:16;8.00;;;5.20;;
58222;SDS011;44020;50.890;15.796;2023-05-07T07:15:44;7.30;;;4.80;;
58222;SDS011;44020;50.890;15.796;2023-05-07T07:18:12;8.50;;;5.00;;
58222;SDS011;44020;50.890;15.796;2023-05-07T07:20:39;8.00;;;5.40;;
58222;SDS011;44020;50.890;15.796;2023-05-07T07:23:07;8.20;;;5.00;;
58222;SDS011;44020;50.890;15.796;2023-05-07T07:25:35;8.70;;;5.90;;
58222;SDS011;44020;50.890;15.796;2023-05-07T07:28:03;7.20;;;5.60;;
58222;SDS011;44020;50.890;15.796;2023-05-07T07:30:33;7.40;;;5.30;;
58222;SDS011;44020;50.890;15.796;2023-05-07T07:33:01;5.40;;;4.70;;
58222;SDS011;44020;50.890;15.796;2023-05-07T07:35:30;5.60;;;4.50;;
58222;SDS011;44020;50.890;15.796;2023-05-07T07:38:01;5.60;;;4.10;;
58222;SDS011;44020;50.890;15.796;2023-05-07T07:40:29;5.80;;;3.70;;
58222;SDS011;44020;50.890;15.796;2023-05-07T07:42:56;4.90;;;4.00;;
58222;SDS011;44020;50.890;15.796;2023-05-07T07:45:23;5.00;;;3.70;;
58222;SDS011;44020;50.890;15.796;2023-05-07T07:47:51;6.60;;;4.00;;
58222;SDS011;44020;50.890;15.796;2023-05-07T07:50:19;6.20;;;4.20;;
58222;SDS011;44020;50.890;15.796;2023-05-07T07:52:47;5.30;;;3.70;;
58222;SDS011;44020;50.890;15.796;2023-05-07T07:55:15;5.30;;;3.80;;
58222;SDS011;44020;50.890;15.796;2023-05-07T07:57:48;4.90;;;3.70;;
58222;SDS011;44020;50.890;15.796;2023-05-07T08:00:16;5.90;;;4.00;;
58222;SDS011;44020;50.890;15.796;2023-05-07T08:02:44;5.40;;;3.70;;
58222;SDS011;44020;50.890;15.796;2023-05-07T08:05:12;5.30;;;3.90;;
58222;SDS011;44020;50.890;15.796;2023-05-07T08:07:40;5.20;;;3.70;;
58222;SDS011;44020;50.890;15.796;2023-05-07T08:10:07;6.40;;;4.00;;
58222;SDS011;44020;50.890;15.796;2023-05-07T08:12:35;4.70;;;3.60;;
58222;SDS011;44020;50.890;15.796;2023-05-07T08:15:03;4.90;;;3.90;;
58222;SDS011;44020;50.890;15.796;2023-05-07T08:17:32;6.80;;;4.40;;
58222;SDS011;44020;50.890;15.796;2023-05-07T08:19:59;8.10;;;6.00;;
58222;SDS011;44020;50.890;15.796;2023-05-07T08:22:27;7.90;;;6.10;;
58222;SDS011;44020;50.890;15.796;2023-05-07T08:24:54;9.70;;;6.60;;
58222;SDS011;44020;50.890;15.796;2023-05-07T08:27:23;8.00;;;6.30;;
58222;SDS011;44020;50.890;15.796;2023-05-07T08:29:51;9.30;;;6.40;;
58222;SDS011;44020;50.890;15.796;2023-05-07T08:32:18;9.20;;;6.70;;
58222;SDS011;44020;50.890;15.796;2023-05-07T08:34:47;11.70;;;6.40;;
58222;SDS011;44020;50.890;15.796;2023-05-07T08:37:14;7.90;;;5.30;;
58222;SDS011;44020;50.890;15.796;2023-05-07T08:39:42;8.40;;;5.50;;
58222;SDS011;44020;50.890;15.796;2023-05-07T08:42:10;8.50;;;5.30;;
58222;SDS011;44020;50.890;15.796;2023-05-07T08:44:39;6.40;;;4.50;;
58222;SDS011;44020;50.890;15.796;2023-05-07T08:47:09;7.00;;;4.60;;
58222;SDS011;44020;50.890;15.796;2023-05-07T08:49:37;6.20;;;4.50;;
58222;SDS011;44020;50.890;15.796;2023-05-07T08:52:05;6.20;;;4.10;;
58222;SDS011;44020;50.890;15.796;2023-05-07T08:54:33;6.30;;;4.60;;
58222;SDS011;44020;50.890;15.796;2023-05-07T08:57:00;8.00;;;4.80;;
58222;SDS011;44020;50.890;15.796;2023-05-07T08:59:28;7.40;;;4.90;;
58222;SDS011;44020;50.890;15.796;2023-05-07T09:01:56;8.50;;;5.00;;
58222;SDS011;44020;50.890;15.796;2023-05-07T09:04:23;10.00;;;5.30;;
58222;SDS011;44020;50.890;15.796;2023-05-07T09:06:51;9.60;;;6.40;;
58222;SDS011;44020;50.890;15.796;2023-05-07T09:09:19;9.50;;;6.10;;
58222;SDS011;44020;50.890;15.796;2023-05-07T09:11:48;10.50;;;7.10;;
58222;SDS011;44020;50.890;15.796;2023-05-07T09:14:25;8.30;;;6.30;;
58222;SDS011;44020;50.890;15.796;2023-05-07T09:16:53;9.80;;;6.20;;
58222;SDS011;44020;50.890;15.796;2023-05-07T09:19:25;10.40;;;7.10;;
58222;SDS011;44020;50.890;15.796;2023-05-07T09:22:00;9.30;;;6.50;;
58222;SDS011;44020;50.890;15.796;2023-05-07T09:24:28;11.40;;;7.30;;
58222;SDS011;44020;50.890;15.796;2023-05-07T09:27:02;10.90;;;7.70;;
58222;SDS011;44020;50.890;15.796;2023-05-07T09:29:41;10.90;;;6.90;;
58222;SDS011;44020;50.890;15.796;2023-05-07T09:32:10;9.70;;;6.90;;
58222;SDS011;44020;50.890;15.796;2023-05-07T09:34:38;9.20;;;6.60;;
58222;SDS011;44020;50.890;15.796;2023-05-07T09:37:07;10.40;;;6.60;;
58222;SDS011;44020;50.890;15.796;2023-05-07T09:42:13;18.00;;;11.50;;
58222;SDS011;44020;50.890;15.796;2023-05-07T09:44:43;44.40;;;20.70;;
58222;SDS011;44020;50.890;15.796;2023-05-07T09:47:12;23.00;;;12.00;;
58222;SDS011;44020;50.890;15.796;2023-05-07T09:49:47;8.70;;;6.40;;
58222;SDS011;44020;50.890;15.796;2023-05-07T09:52:15;6.90;;;5.80;;
58222;SDS011;44020;50.890;15.796;2023-05-07T09:54:43;7.00;;;5.50;;
58222;SDS011;44020;50.890;15.796;2023-05-07T09:57:14;6.30;;;5.30;;
58222;SDS011;44020;50.890;15.796;2023-05-07T09:59:42;6.00;;;5.40;;
58222;SDS011;44020;50.890;15.796;2023-05-07T10:02:10;8.10;;;5.70;;
58222;SDS011;44020;50.890;15.796;2023-05-07T10:04:40;7.70;;;5.40;;
58222;SDS011;44020;50.890;15.796;2023-05-07T10:07:08;9.00;;;6.80;;
58222;SDS011;44020;50.890;15.796;2023-05-07T10:09:35;8.70;;;6.70;;
58222;SDS011;44020;50.890;15.796;2023-05-07T10:12:05;8.40;;;6.90;;
58222;SDS011;44020;50.890;15.796;2023-05-07T10:14:34;10.80;;;8.30;;
58222;SDS011;44020;50.890;15.796;2023-05-07T10:17:02;8.80;;;7.00;;
58222;SDS011;44020;50.890;15.796;2023-05-07T10:19:30;8.60;;;6.70;;
58222;SDS011;44020;50.890;15.796;2023-05-07T10:22:01;8.90;;;6.50;;
58222;SDS011;44020;50.890;15.796;2023-05-07T10:27:01;6.20;;;5.60;;
58222;SDS011;44020;50.890;15.796;2023-05-07T10:29:43;6.60;;;5.50;;
58222;SDS011;44020;50.890;15.796;2023-05-07T10:35:22;7.00;;;5.80;;
58222;SDS011;44020;50.890;15.796;2023-05-07T10:37:53;6.90;;;6.10;;
58222;SDS011;44020;50.890;15.796;2023-05-07T10:40:21;6.80;;;5.70;;
58222;SDS011;44020;50.890;15.796;2023-05-07T10:42:59;6.50;;;5.80;;
58222;SDS011;44020;50.890;15.796;2023-05-07T10:45:28;6.10;;;5.20;;
58222;SDS011;44020;50.890;15.796;2023-05-07T10:50:33;5.50;;;4.70;;
58222;SDS011;44020;50.890;15.796;2023-05-07T11:00:49;5.30;;;4.50;;
58222;SDS011;44020;50.890;15.796;2023-05-07T11:03:16;5.90;;;4.80;;
58222;SDS011;44020;50.890;15.796;2023-05-07T11:05:44;6.80;;;4.90;;
58222;SDS011;44020;50.890;15.796;2023-05-07T11:08:12;7.70;;;5.40;;
58222;SDS011;44020;50.890;15.796;2023-05-07T11:13:19;8.20;;;5.30;;
58222;SDS011;44020;50.890;15.796;2023-05-07T11:18:50;7.00;;;5.20;;
58222;SDS011;44020;50.890;15.796;2023-05-07T11:24:01;7.20;;;6.00;;
58222;SDS011;44020;50.890;15.796;2023-05-07T11:26:30;7.20;;;6.40;;
58222;SDS011;44020;50.890;15.796;2023-05-07T11:29:16;8.40;;;6.50;;
58222;SDS011;44020;50.890;15.796;2023-05-07T11:31:51;10.30;;;7.70;;
58222;SDS011;44020;50.890;15.796;2023-05-07T11:34:23;9.50;;;8.00;;
58222;SDS011;44020;50.890;15.796;2023-05-07T11:36:52;9.30;;;7.80;;
58222;SDS011;44020;50.890;15.796;2023-05-07T11:39:30;9.40;;;7.80;;
58222;SDS011;44020;50.890;15.796;2023-05-07T11:41:59;8.70;;;7.30;;
58222;SDS011;44020;50.890;15.796;2023-05-07T11:44:43;10.50;;;6.80;;
58222;SDS011;44020;50.890;15.796;2023-05-07T11:47:19;7.30;;;6.50;;
58222;SDS011;44020;50.890;15.796;2023-05-07T11:49:48;8.30;;;6.70;;
58222;SDS011;44020;50.890;15.796;2023-05-07T11:52:18;8.00;;;7.00;;
58222;SDS011;44020;50.890;15.796;2023-05-07T11:54:53;6.80;;;6.00;;
58222;SDS011;44020;50.890;15.796;2023-05-07T11:57:24;9.10;;;6.40;;
58222;SDS011;44020;50.890;15.796;2023-05-07T11:59:53;7.20;;;5.40;;
58222;SDS011;44020;50.890;15.796;2023-05-07T12:02:21;6.50;;;5.00;;
58222;SDS011;44020;50.890;15.796;2023-05-07T12:04:49;5.60;;;5.00;;
58222;SDS011;44020;50.890;15.796;2023-05-07T12:07:17;6.30;;;5.30;;
58222;SDS011;44020;50.890;15.796;2023-05-07T12:09:45;7.30;;;6.50;;
58222;SDS011;44020;50.890;15.796;2023-05-07T12:12:14;8.70;;;6.70;;
58222;SDS011;44020;50.890;15.796;2023-05-07T12:14:44;8.90;;;6.90;;
58222;SDS011;44020;50.890;15.796;2023-05-07T12:17:13;11.80;;;9.30;;
58222;SDS011;44020;50.890;15.796;2023-05-07T12:19:42;9.90;;;8.00;;
58222;SDS011;44020;50.890;15.796;2023-05-07T12:22:12;11.00;;;9.20;;
58222;SDS011;44020;50.890;15.796;2023-05-07T12:24:47;12.60;;;9.80;;
58222;SDS011;44020;50.890;15.796;2023-05-07T12:27:16;11.00;;;9.80;;
58222;SDS011;44020;50.890;15.796;2023-05-07T12:29:47;11.80;;;10.00;;
58222;SDS011;44020;50.890;15.796;2023-05-07T12:32:19;11.40;;;9.60;;
58222;SDS011;44020;50.890;15.796;2023-05-07T12:34:51;11.40;;;9.50;;
58222;SDS011;44020;50.890;15.796;2023-05-07T12:37:25;11.60;;;10.00;;
58222;SDS011;44020;50.890;15.796;2023-05-07T12:40:06;11.70;;;10.20;;
58222;SDS011;44020;50.890;15.796;2023-05-07T12:42:36;12.30;;;11.00;;
58222;SDS011;44020;50.890;15.796;2023-05-07T12:45:15;12.80;;;11.00;;
58222;SDS011;44020;50.890;15.796;2023-05-07T12:47:44;11.90;;;10.60;;
58222;SDS011;44020;50.890;15.796;2023-05-07T12:50:15;12.90;;;11.20;;
58222;SDS011;44020;50.890;15.796;2023-05-07T12:52:43;12.10;;;10.70;;
58222;SDS011;44020;50.890;15.796;2023-05-07T12:55:13;12.30;;;10.80;;
58222;SDS011;44020;50.890;15.796;2023-05-07T12:57:43;16.90;;;12.40;;
58222;SDS011;44020;50.890;15.796;2023-05-07T13:00:14;18.70;;;11.70;;
58222;SDS011;44020;50.890;15.796;2023-05-07T13:02:43;11.90;;;10.40;;
58222;SDS011;44020;50.890;15.796;2023-05-07T13:05:12;13.50;;;11.20;;
58222;SDS011;44020;50.890;15.796;2023-05-07T13:07:40;14.20;;;10.90;;
58222;SDS011;44020;50.890;15.796;2023-05-07T13:10:09;21.00;;;13.80;;
58222;SDS011;44020;50.890;15.796;2023-05-07T13:12:37;15.90;;;12.00;;
58222;SDS011;44020;50.890;15.796;2023-05-07T13:15:04;12.60;;;9.90;;
58222;SDS011;44020;50.890;15.796;2023-05-07T13:17:33;11.20;;;9.50;;
58222;SDS011;44020;50.890;15.796;2023-05-07T13:20:00;12.30;;;9.80;;
58222;SDS011;44020;50.890;15.796;2023-05-07T13:22:28;13.30;;;9.80;;
58222;SDS011;44020;50.890;15.796;2023-05-07T13:24:56;11.40;;;9.50;;
58222;SDS011;44020;50.890;15.796;2023-05-07T13:27:24;14.70;;;12.50;;
58222;SDS011;44020;50.890;15.796;2023-05-07T13:29:52;19.30;;;14.30;;
58222;SDS011;44020;50.890;15.796;2023-05-07T13:32:19;14.00;;;11.00;;
58222;SDS011;44020;50.890;15.796;2023-05-07T13:34:47;14.80;;;12.60;;
58222;SDS011;44020;50.890;15.796;2023-05-07T13:37:14;16.90;;;13.10;;
58222;SDS011;44020;50.890;15.796;2023-05-07T13:39:42;25.00;;;17.10;;
58222;SDS011;44020;50.890;15.796;2023-05-07T13:42:10;14.10;;;10.70;;
58222;SDS011;44020;50.890;15.796;2023-05-07T13:44:37;15.50;;;11.50;;
58222;SDS011;44020;50.890;15.796;2023-05-07T13:47:05;12.50;;;9.10;;
58222;SDS011;44020;50.890;15.796;2023-05-07T13:49:33;10.80;;;8.70;;
58222;SDS011;44020;50.890;15.796;2023-05-07T13:52:01;10.20;;;8.40;;
58222;SDS011;44020;50.890;15.796;2023-05-07T13:54:29;11.70;;;8.00;;
58222;SDS011;44020;50.890;15.796;2023-05-07T13:56:57;8.60;;;6.80;;
58222;SDS011;44020;50.890;15.796;2023-05-07T13:59:24;7.10;;;5.80;;
58222;SDS011;44020;50.890;15.796;2023-05-07T14:01:52;7.90;;;6.40;;
58222;SDS011;44020;50.890;15.796;2023-05-07T14:04:21;10.00;;;5.70;;
58222;SDS011;44020;50.890;15.796;2023-05-07T14:06:49;7.90;;;5.70;;
58222;SDS011;44020;50.890;15.796;2023-05-07T14:09:17;7.50;;;5.60;;
58222;SDS011;44020;50.890;15.796;2023-05-07T14:11:45;9.40;;;6.60;;
58222;SDS011;44020;50.890;15.796;2023-05-07T14:14:14;6.50;;;5.40;;
58222;SDS011;44020;50.890;15.796;2023-05-07T14:16:42;7.90;;;6.00;;
58222;SDS011;44020;50.890;15.796;2023-05-07T14:19:09;7.30;;;6.00;;
58222;SDS011;44020;50.890;15.796;2023-05-07T14:21:37;8.70;;;5.90;;
58222;SDS011;44020;50.890;15.796;2023-05-07T14:24:06;9.10;;;6.60;;
58222;SDS011;44020;50.890;15.796;2023-05-07T14:26:35;9.40;;;6.90;;
58222;SDS011;44020;50.890;15.796;2023-05-07T14:29:02;9.50;;;6.40;;
58222;SDS011;44020;50.890;15.796;2023-05-07T14:31:30;6.90;;;5.60;;
58222;SDS011;44020;50.890;15.796;2023-05-07T14:33:57;8.60;;;6.40;;
58222;SDS011;44020;50.890;15.796;2023-05-07T14:36:26;7.80;;;5.90;;
58222;SDS011;44020;50.890;15.796;2023-05-07T14:38:54;6.80;;;5.20;;
58222;SDS011;44020;50.890;15.796;2023-05-07T14:41:22;7.80;;;5.40;;
58222;SDS011;44020;50.890;15.796;2023-05-07T14:43:50;6.70;;;4.90;;
58222;SDS011;44020;50.890;15.796;2023-05-07T14:46:18;8.40;;;4.70;;
58222;SDS011;44020;50.890;15.796;2023-05-07T14:48:46;6.80;;;5.30;;
58222;SDS011;44020;50.890;15.796;2023-05-07T14:51:14;6.50;;;5.00;;
58222;SDS011;44020;50.890;15.796;2023-05-07T14:53:42;6.70;;;5.10;;
58222;SDS011;44020;50.890;15.796;2023-05-07T14:56:10;7.60;;;5.80;;
58222;SDS011;44020;50.890;15.796;2023-05-07T14:58:38;7.10;;;5.20;;
58222;SDS011;44020;50.890;15.796;2023-05-07T15:01:06;6.90;;;5.00;;
58222;SDS011;44020;50.890;15.796;2023-05-07T15:03:34;22.50;;;13.00;;